Pagrindinis puslapis
METAR-TAF:

METAR-TAF

Oro uostai :

Ventspilio oro uostas

Ventspilis, Latvija

platuma: 57-21-28N, ilguma: 021-32-39E, Aukštis: 6 m

Dabartinis oras

Ataskaita buvo paskelbta 41 minutes, ne 06:50 UTC
Vėjas 5 kt iš Pietų/Pietryčių
Temperatūra -5°C
Drėgmė 93%
Slėgis 1011 hPa
Matomumas: 4700 m
Apsiniaukę ne aukštis 900 ft
rūkana

METAR: EVVA 230650Z AUTO 15005KT 4700 BR OVC009 M05/M06 Q1011

Laikas: 09:31 (07:31 UTC)


TAF: trūkstamas

Orai ataskaitas ir orų prognozės (METAR, TAF).

turimą stotys yra geltonos ir raudonos taškus žemėlapyje.

Perkelti pele per norėdami pamatyti stoties vardą.

Tada spustelėkite, norėdami matyti oro stebėjimo ir prognozės.

Norėdami pakeisti žemėlapį: spustelėkite ant žalios mygtukų su juodo kryžiaus žemyn,; žalią mygtuką su brūkšneliu, jei norite nutolinti; arba žalių rodyklių gretimoms žemėlapius.


METAR-TAF: